• Join FlightAware (Why Join?)
  • Login
  • US Flag 
03:26PM EST


 

Airport Tracker/Info


-or-


 

Live Flight TrackerFlight Track Log ✈ CCA1204 ✈ 14-Apr-2013 ✈ ZLXY / XIY - ZBAA / PEK

Flight Track Log - Related Links

Times and Time Zones

All times are in EDT time to prevent confusion due to time zone crossing. See the CCA1204 flight status page for this flight to view local times or setup timezone preferences in your user account.

Time Position Orientation Groundspeed Altitude Reporting Facility
EDT Latitude Longitude Course Direction KTS MPH feet Rate Location/Type
10:48PM 34.6429 108.9947 46° Northeast  Level Estimated
10:49PM 34.7080 109.0759 46° Northeast  Level Estimated
10:50PM 34.7731 109.1573 46° Northeast  Level Estimated
10:51PM 34.8381 109.2389 46° Northeast  Level Estimated
10:52PM 34.9031 109.3205 46° Northeast  Level Estimated
10:53PM 34.9680 109.4023 46° Northeast  Level Estimated
10:54PM 35.0329 109.4843 46° Northeast  Level Estimated
10:55PM 35.0977 109.5663 46° Northeast  Level Estimated
10:56PM 35.1624 109.6485 46° Northeast  Level Estimated
10:57PM 35.2271 109.7308 46° Northeast  Level Estimated
10:58PM 35.2918 109.8132 46° Northeast  Level Estimated
10:59PM 35.3564 109.8958 46° Northeast  Level Estimated
11:00PM 35.4209 109.9785 46° Northeast  Level Estimated
11:01PM 35.4854 110.0614 46° Northeast  Level Estimated
11:02PM 35.5498 110.1443 46° Northeast  Level Estimated
11:03PM 35.6142 110.2274 46° Northeast  Level Estimated
11:04PM 35.6785 110.3107 46° Northeast  Level Estimated
11:05PM 35.7427 110.3941 46° Northeast  Level Estimated
11:06PM 35.8069 110.4776 47° Northeast  Level Estimated
11:07PM 35.8710 110.5612 47° Northeast  Level Estimated
11:08PM 35.9351 110.6450 47° Northeast  Level Estimated
11:09PM 35.9991 110.7289 47° Northeast  Level Estimated
11:10PM 36.0631 110.8130 47° Northeast  Level Estimated
11:11PM 36.1270 110.8972 47° Northeast  Level Estimated
11:12PM 36.1908 110.9815 47° Northeast  Level Estimated
11:13PM 36.2546 111.0660 47° Northeast  Level Estimated
11:14PM 36.3183 111.1506 47° Northeast  Level Estimated
11:15PM 36.3820 111.2353 47° Northeast  Level Estimated
11:16PM 36.4456 111.3202 47° Northeast  Level Estimated
11:17PM 36.5091 111.4052 47° Northeast  Level Estimated
11:18PM 36.5726 111.4904 47° Northeast  Level Estimated
11:19PM 36.6360 111.5757 47° Northeast  Level Estimated
11:20PM 36.6994 111.6611 47° Northeast  Level Estimated
11:21PM 36.7627 111.7467 47° Northeast  Level Estimated
11:22PM 36.8259 111.8324 47° Northeast  Level Estimated
11:23PM 36.8891 111.9183 47° Northeast  Level Estimated
11:24PM 36.9522 112.0043 47° Northeast  Level Estimated
11:25PM 37.0153 112.0904 47° Northeast  Level Estimated
11:26PM 37.0783 112.1767 48° Northeast  Level Estimated
11:27PM 37.1412 112.2631 48° Northeast  Level Estimated
11:28PM 37.2040 112.3497 48° Northeast  Level Estimated
11:29PM 37.2668 112.4364 48° Northeast  Level Estimated
11:30PM 37.3296 112.5233 48° Northeast  Level Estimated
11:31PM 37.3923 112.6103 48° Northeast  Level Estimated
11:32PM 37.4549 112.6975 48° Northeast  Level Estimated
11:33PM 37.5174 112.7848 48° Northeast  Level Estimated
11:34PM 37.5799 112.8722 48° Northeast  Level Estimated
11:35PM 37.6423 112.9598 48° Northeast  Level Estimated
11:36PM 37.7047 113.0476 48° Northeast  Level Estimated
11:37PM 37.7669 113.1355 48° Northeast  Level Estimated
11:38PM 37.8292 113.2235 48° Northeast  Level Estimated
11:39PM 37.8913 113.3117 48° Northeast  Level Estimated
11:40PM 37.9534 113.4000 48° Northeast  Level Estimated
11:41PM 38.0154 113.4885 48° Northeast  Level Estimated
11:42PM 38.0774 113.5771 48° Northeast  Level Estimated
11:43PM 38.1393 113.6659 48° Northeast  Level Estimated
11:44PM 38.2011 113.7549 48° Northeast  Level Estimated
11:45PM 38.2629 113.8440 49° Northeast  Level Estimated
11:46PM 38.3245 113.9332 49° Northeast  Level Estimated
11:47PM 38.3862 114.0226 49° Northeast  Level Estimated
11:48PM 38.4477 114.1121 49° Northeast  Level Estimated
11:49PM 38.5092 114.2018 49° Northeast  Level Estimated
11:50PM 38.5706 114.2917 49° Northeast  Level Estimated
11:51PM 38.6320 114.3817 49° Northeast  Level Estimated
11:52PM 38.6932 114.4718 49° Northeast  Level Estimated
11:53PM 38.7545 114.5622 49° Northeast  Level Estimated
11:54PM 38.8156 114.6526 49° Northeast  Level Estimated
11:55PM 38.8767 114.7432 49° Northeast  Level Estimated
11:56PM 38.9377 114.8340 49° Northeast  Level Estimated
11:57PM 38.9986 114.9250 49° Northeast  Level Estimated
11:58PM 39.0594 115.0161 49° Northeast  Level Estimated
11:59PM 39.1202 115.1073 49° Northeast  Level Estimated
12:00AM 39.1810 115.1987 49° Northeast  Level Estimated
12:01AM 39.2416 115.2903 49° Northeast  Level Estimated
12:02AM 39.3022 115.3820 50° Northeast  Level Estimated
12:03AM 39.3627 115.4739 50° Northeast  Level Estimated
12:04AM 39.4231 115.5659 50° Northeast  Level Estimated
12:05AM 39.4834 115.6581 50° Northeast  Level Estimated
12:06AM 39.5437 115.7505 50° Northeast  Level Estimated
12:07AM 39.6039 115.8430 50° Northeast  Level Estimated
12:08AM 39.6641 115.9357 50° Northeast  Level Estimated
12:09AM 39.7241 116.0285 50° Northeast  Level Estimated
12:10AM 39.7841 116.1215 50° Northeast  Level Estimated
12:11AM 39.8440 116.2147 50° Northeast  Level Estimated
12:12AM 39.9039 116.3080 50° Northeast  Level Estimated
12:13AM 39.9636 116.4015 50° Northeast  Level Estimated
12:14AM 40.0233 116.4952 50° Northeast  Level Estimated